Time;durP1;ratioP1;P1;durP2;ratioP2;P2;SDS_P1;SDS_P2;PMS_P1;PMS_P2;Temp;Humidity;BMP_temperature;BMP_pressure;BME280_temperature;BME280_humidity;BME280_pressure;Samples;Min_cycle;Max_cycle;Signal;HPM_P1;HPM_P2
2023/05/12 00:00:56;;;;;;;;;;;;;;;7.62;65.61;97718.73;110183;1241;69194;-74
2023/05/12 00:03:26;;;;;;;;;;;;;;;7.60;65.22;97721.29;110171;1242;59666;-74
2023/05/12 00:05:59;;;;;;;;;;;;;;;7.57;67.16;97723.35;110202;1241;59679;-76
2023/05/12 00:08:30;;;;;;;;;;;;;;;7.55;65.85;97717.94;110209;1241;71225;-76
2023/05/12 00:11:01;;;;;;;;;;;;;;;7.53;66.24;97716.63;110224;1241;69335;-75
2023/05/12 00:13:32;;;;;;;;;;;;;;;7.51;66.10;97713.12;110186;1242;69357;-75
2023/05/12 00:16:03;;;;;;;;;;;;;;;7.50;67.00;97711.77;110192;1241;59769;-74
2023/05/12 00:18:35;;;;;;;;;;;;;;;7.51;67.40;97709.10;110191;1242;59817;-75
2023/05/12 00:21:07;;;;;;;;;;;;;;;7.53;66.94;97709.88;110188;1242;71414;-75
2023/05/12 00:23:40;;;;;;;;;;;;;;;7.52;67.23;97711.31;110181;1241;68652;-75
2023/05/12 00:26:10;;;;;;;;;;;;;;;7.50;66.51;97711.63;110182;1241;69286;-75
2023/05/12 00:28:44;;;;;;;;;;;;;;;7.48;66.72;97714.99;110183;1245;60066;-75
2023/05/12 00:31:15;;;;;;;;;;;;;;;7.46;66.57;97713.06;110201;1240;59708;-75
2023/05/12 00:33:47;;;;;;;;;;;;;;;7.43;66.83;97710.95;110206;1241;71650;-75
2023/05/12 00:36:19;;;;;;;;;;;;;;;7.43;67.04;97707.33;110162;1245;69496;-73
2023/05/12 00:38:51;;;;;;;;;;;;;;;7.42;67.87;97710.13;110192;1242;69250;-74
2023/05/12 00:41:22;;;;;;;;;;;;;;;7.43;67.62;97706.47;110094;1241;59683;-74
2023/05/12 00:43:53;;;;;;;;;;;;;;;7.42;67.41;97710.64;110239;1242;59688;-74
2023/05/12 00:46:24;;;;;;;;;;;;;;;7.41;67.64;97708.84;110142;1241;71339;-74
2023/05/12 00:48:58;;;;;;;;;;;;;;;7.38;67.62;97705.64;110224;1241;68483;-74
2023/05/12 00:51:32;;;;;;;;;;;;;;;7.36;67.28;97704.55;110244;1241;68563;-75
2023/05/12 00:54:04;;;;;;;;;;;;;;;7.34;68.55;97704.66;110196;1242;59740;-74
2023/05/12 00:56:39;;;;;;;;;;;;;;;7.34;68.19;97705.73;110198;1242;59643;-75
2023/05/12 00:59:12;;;;;;;;;;;;;;;7.34;67.39;97705.70;110259;1242;71440;-74
2023/05/12 01:01:43;;;;;;;;;;;;;;;7.36;67.38;97704.38;110153;1242;69629;-74
2023/05/12 01:04:18;;;;;;;;;;;;;;;7.37;67.83;97706.60;110109;1245;69303;-74
2023/05/12 01:06:59;;;;;;;;;;;;;;;7.37;67.34;97701.91;110222;1240;59680;-74
2023/05/12 01:09:33;;;;;;;;;;;;;;;7.34;67.11;97697.54;110157;1240;59715;-74
2023/05/12 01:12:07;;;;;;;;;;;;;;;7.32;67.16;97698.02;110211;1242;70659;-74
2023/05/12 01:14:42;;;;;;;;;;;;;;;7.33;67.06;97699.86;110233;1242;69034;-76
2023/05/12 01:17:14;;;;;;;;;;;;;;;7.36;67.60;97700.23;110203;1242;68526;-76
2023/05/12 01:19:51;;;;;;;;;;;;;;;7.41;68.66;97697.37;110104;1240;59783;-74
2023/05/12 01:22:25;;;;;;;;;;;;;;;7.43;67.85;97700.21;110185;1242;59682;-75
2023/05/12 01:25:03;;;;;;;;;;;;;;;7.44;67.67;97699.65;110231;1240;70637;-75
2023/05/12 01:27:36;;;;;;;;;;;;;;;7.44;66.76;97700.31;110085;1241;68380;-75
2023/05/12 01:30:12;;;;;;;;;;;;;;;7.45;67.49;97696.48;110121;1243;68552;-75
2023/05/12 01:32:46;;;;;;;;;;;;;;;7.45;67.24;97696.79;110176;1241;59680;-75
2023/05/12 01:35:26;;;;;;;;;;;;;;;7.50;68.01;97695.64;110177;1244;59684;-75
2023/05/12 01:38:03;;;;;;;;;;;;;;;7.57;67.90;97697.67;110231;1242;71238;-75
2023/05/12 01:40:38;;;;;;;;;;;;;;;7.60;68.10;97694.38;110147;1241;68718;-74
2023/05/12 01:43:10;;;;;;;;;;;;;;;7.62;67.62;97696.84;110098;1244;69406;-75
2023/05/12 01:45:40;;;;;;;;;;;;;;;7.64;67.28;97693.45;110143;1243;59670;-75
2023/05/12 01:48:12;;;;;;;;;;;;;;;7.65;68.75;97693.02;110136;1240;59729;-75
2023/05/12 01:50:43;;;;;;;;;;;;;;;7.65;68.80;97695.15;110118;1244;71994;-75
2023/05/12 01:53:18;;;;;;;;;;;;;;;7.64;68.47;97689.33;110144;1243;69804;-75
2023/05/12 01:55:49;;;;;;;;;;;;;;;7.64;68.02;97685.13;110190;1242;69139;-75
2023/05/12 01:58:21;;;;;;;;;;;;;;;7.68;68.40;97684.76;110125;1241;59879;-75
2023/05/12 02:00:56;;;;;;;;;;;;;;;7.74;68.50;97685.84;110108;1244;59675;-75
2023/05/12 02:03:29;;;;;;;;;;;;;;;7.78;69.10;97683.51;110143;1241;70485;-75
2023/05/12 02:06:01;;;;;;;;;;;;;;;7.79;68.43;97681.02;108513;1241;2190251;-75
2023/05/12 02:08:33;;;;;;;;;;;;;;;7.81;68.45;97680.55;110113;1242;69104;-73
2023/05/12 02:11:06;;;;;;;;;;;;;;;7.81;67.98;97677.92;110174;1242;59725;-76
2023/05/12 02:13:37;;;;;;;;;;;;;;;7.84;67.72;97672.92;110151;1244;59704;-74
2023/05/12 02:16:10;;;;;;;;;;;;;;;7.86;68.19;97672.59;110144;1243;70478;-74
2023/05/12 02:18:42;;;;;;;;;;;;;;;7.90;68.31;97674.83;110063;1241;69072;-74
2023/05/12 02:21:12;;;;;;;;;;;;;;;7.91;68.65;97673.70;110120;1240;69356;-74
2023/05/12 02:23:44;;;;;;;;;;;;;;;7.92;69.24;97671.20;110130;1244;59692;-74
2023/05/12 02:26:15;;;;;;;;;;;;;;;7.95;68.35;97672.27;110152;1245;59682;-74
2023/05/12 02:28:45;;;;;;;;;;;;;;;7.96;69.17;97673.60;110119;1244;70579;-74
2023/05/12 02:31:18;;;;;;;;;;;;;;;7.98;68.74;97673.30;110117;1240;69423;-74
2023/05/12 02:33:50;;;;;;;;;;;;;;;8.00;68.29;97675.11;110218;1241;69306;-74
2023/05/12 02:36:21;;;;;;;;;;;;;;;8.02;68.48;97674.98;110171;1243;59647;-74
2023/05/12 02:38:52;;;;;;;;;;;;;;;8.07;68.12;97672.64;110195;1242;59747;-74
2023/05/12 02:41:23;;;;;;;;;;;;;;;8.11;67.87;97673.77;110119;1241;70667;-75
2023/05/12 02:43:53;;;;;;;;;;;;;;;8.16;67.72;97675.73;110147;1243;68520;-74
2023/05/12 02:46:27;;;;;;;;;;;;;;;8.20;67.42;97674.80;110093;1240;68314;-75
2023/05/12 02:48:57;;;;;;;;;;;;;;;8.24;67.26;97676.83;110174;1240;59777;-76
2023/05/12 02:51:28;;;;;;;;;;;;;;;8.28;66.72;97672.29;110139;1244;59673;-74
2023/05/12 02:53:57;;;;;;;;;;;;;;;8.30;66.63;97668.80;110185;1244;70822;-74
2023/05/12 02:56:27;;;;;;;;;;;;;;;8.33;66.87;97669.86;110156;1243;69207;-74
2023/05/12 02:59:01;;;;;;;;;;;;;;;8.35;66.38;97666.98;110208;1242;69622;-74
2023/05/12 03:01:31;;;;;;;;;;;;;;;8.37;66.28;97665.13;110227;1242;59754;-74
2023/05/12 03:04:00;;;;;;;;;;;;;;;8.39;65.92;97671.92;110092;1244;59750;-73
2023/05/12 03:06:32;;;;;;;;;;;;;;;8.42;65.96;97670.73;110148;1243;70632;-74
2023/05/12 03:09:04;;;;;;;;;;;;;;;8.45;65.59;97672.11;110132;1240;68334;-73
2023/05/12 03:11:35;;;;;;;;;;;;;;;8.48;65.45;97674.36;110140;1240;69286;-74
2023/05/12 03:14:07;;;;;;;;;;;;;;;8.52;65.37;97673.62;110208;1241;59703;-74
2023/05/12 03:16:39;;;;;;;;;;;;;;;8.54;65.29;97677.30;110139;1244;59746;-74
2023/05/12 03:19:09;;;;;;;;;;;;;;;8.57;65.12;97676.23;110126;1240;70853;-76
2023/05/12 03:21:40;;;;;;;;;;;;;;;8.61;64.63;97677.36;110112;1242;69219;-74
2023/05/12 03:24:13;;;;;;;;;;;;;;;8.65;64.38;97676.29;110218;1242;69273;-74
2023/05/12 03:26:45;;;;;;;;;;;;;;;8.68;64.36;97675.76;110190;1242;59753;-75
2023/05/12 03:29:16;;;;;;;;;;;;;;;8.72;64.31;97677.79;110227;1240;59678;-76
2023/05/12 03:31:45;;;;;;;;;;;;;;;8.76;64.40;97681.20;110104;1244;72163;-76
2023/05/12 03:34:16;;;;;;;;;;;;;;;8.79;64.18;97683.08;110113;1245;69141;-76
2023/05/12 03:36:47;;;;;;;;;;;;;;;8.83;63.95;97682.02;110148;1245;69108;-76
2023/05/12 03:39:17;;;;;;;;;;;;;;;8.86;63.91;97684.05;110222;1242;59691;-75
2023/05/12 03:41:46;;;;;;;;;;;;;;;8.88;63.88;97688.96;110229;1242;59743;-76
2023/05/12 03:44:18;;;;;;;;;;;;;;;8.91;63.73;97688.94;110117;1241;70818;-76
2023/05/12 03:46:49;;;;;;;;;;;;;;;8.94;63.54;97689.45;110200;1240;68848;-74
2023/05/12 03:49:21;;;;;;;;;;;;;;;8.97;63.46;97688.27;110169;1241;69231;-74
2023/05/12 03:51:52;;;;;;;;;;;;;;;8.97;63.35;97695.70;110197;1240;59693;-74
2023/05/12 03:54:22;;;;;;;;;;;;;;;9.00;63.21;97698.83;110188;1241;60081;-74
2023/05/12 03:56:52;;;;;;;;;;;;;;;9.01;63.35;97698.94;110172;1241;70458;-74
2023/05/12 03:59:21;;;;;;;;;;;;;;;9.05;63.01;97695.40;110117;1240;68565;-74
2023/05/12 04:01:52;;;;;;;;;;;;;;;9.08;62.94;97699.22;110127;1245;69609;-74
2023/05/12 04:04:23;;;;;;;;;;;;;;;9.10;62.65;97702.53;110137;1245;59706;-74
2023/05/12 04:06:52;;;;;;;;;;;;;;;9.13;62.61;97703.92;110118;1245;59760;-74
2023/05/12 04:09:22;;;;;;;;;;;;;;;9.17;62.66;97706.64;110113;1244;70349;-74
2023/05/12 04:11:51;;;;;;;;;;;;;;;9.23;61.93;97703.68;110145;1241;69654;-74
2023/05/12 04:14:20;;;;;;;;;;;;;;;9.27;61.65;97705.88;110114;1243;69252;-74
2023/05/12 04:17:06;;;;;;;;;;;;;;;9.32;61.15;97703.30;110161;1244;59768;-74
2023/05/12 04:19:37;;;;;;;;;;;;;;;9.38;60.49;97700.43;110120;1245;59691;-74
2023/05/12 04:22:06;;;;;;;;;;;;;;;9.43;60.27;97703.98;110155;1244;72294;-75
2023/05/12 04:24:37;;;;;;;;;;;;;;;9.48;60.05;97704.84;110093;1245;69152;-74
2023/05/12 04:27:06;;;;;;;;;;;;;;;9.53;59.49;97708.39;110109;1244;69751;-74
2023/05/12 04:29:37;;;;;;;;;;;;;;;9.56;59.82;97706.44;110097;1242;59691;-74
2023/05/12 04:32:06;;;;;;;;;;;;;;;9.59;59.86;97706.09;110133;1241;59757;-74
2023/05/12 04:34:35;;;;;;;;;;;;;;;9.63;59.98;97707.34;110123;1242;71408;-74
2023/05/12 04:37:05;;;;;;;;;;;;;;;9.68;59.65;97707.57;110049;1244;68308;-74
2023/05/12 04:39:34;;;;;;;;;;;;;;;9.72;59.22;97708.88;110111;1243;68807;-75
2023/05/12 04:42:04;;;;;;;;;;;;;;;9.76;58.98;97709.30;110109;1244;59693;-74
2023/05/12 04:44:35;;;;;;;;;;;;;;;9.79;58.63;97710.01;110136;1244;59733;-74
2023/05/12 04:47:04;;;;;;;;;;;;;;;9.81;57.49;97710.09;110112;1244;71450;-74
2023/05/12 04:49:33;;;;;;;;;;;;;;;9.86;57.38;97709.38;110142;1243;69213;-74
2023/05/12 04:52:04;;;;;;;;;;;;;;;9.90;56.58;97709.65;110100;1241;70074;-74
2023/05/12 04:54:33;;;;;;;;;;;;;;;9.94;56.84;97710.95;110122;1244;59740;-75
2023/05/12 04:57:02;;;;;;;;;;;;;;;10.00;56.56;97710.02;110090;1241;59685;-74
2023/05/12 04:59:31;;;;;;;;;;;;;;;10.05;55.90;97706.73;110172;1241;71353;-75
2023/05/12 05:02:01;;;;;;;;;;;;;;;10.09;55.40;97709.92;110108;1241;69844;-74
2023/05/12 05:04:30;;;;;;;;;;;;;;;10.16;54.75;97710.20;110118;1243;70090;-76
2023/05/12 05:06:59;;;;;;;;;;;;;;;10.25;54.17;97709.95;110116;1241;59602;-74
2023/05/12 05:09:29;;;;;;;;;;;;;;;10.31;54.06;97713.77;110129;1245;59737;-75
2023/05/12 05:12:01;;;;;;;;;;;;;;;10.37;53.36;97713.00;110141;1245;71775;-74
2023/05/12 05:14:30;;;;;;;;;;;;;;;10.46;53.09;97713.45;110153;1241;69037;-74
2023/05/12 05:16:59;;;;;;;;;;;;;;;10.54;52.33;97716.55;110091;1243;70029;-74
2023/05/12 05:19:28;;;;;;;;;;;;;;;10.62;52.12;97714.43;110149;1245;59715;-74
2023/05/12 05:22:03;;;;;;;;;;;;;;;10.71;51.56;97714.05;110136;1242;59677;-75
2023/05/12 05:24:33;;;;;;;;;;;;;;;10.79;51.70;97715.35;110145;1244;71411;-74
2023/05/12 05:27:03;;;;;;;;;;;;;;;10.87;51.12;97719.70;110066;1244;69354;-74
2023/05/12 05:29:32;;;;;;;;;;;;;;;10.95;51.24;97720.02;110103;1241;69429;-75
2023/05/12 05:32:03;;;;;;;;;;;;;;;11.04;50.74;97720.97;110153;1244;59640;-74
2023/05/12 05:34:33;;;;;;;;;;;;;;;11.11;50.03;97723.95;110136;1244;59721;-74
2023/05/12 05:37:02;;;;;;;;;;;;;;;11.18;49.47;97723.59;110132;1241;72143;-74
2023/05/12 05:39:31;;;;;;;;;;;;;;;11.28;49.50;97721.23;110169;1241;69291;-74
2023/05/12 05:42:00;;;;;;;;;;;;;;;11.34;47.90;97723.40;110101;1244;69076;-74
2023/05/12 05:44:30;;;;;;;;;;;;;;;11.37;47.11;97727.69;110130;1244;59754;-74
2023/05/12 05:47:01;;;;;;;;;;;;;;;11.42;46.84;97729.08;110182;1245;59729;-74
2023/05/12 05:49:31;;;;;;;;;;;;;;;11.46;46.93;97729.64;110134;1243;71925;-74
2023/05/12 05:52:01;;;;;;;;;;;;;;;11.46;45.86;97725.16;110181;1245;69106;-73
2023/05/12 05:54:30;;;;;;;;;;;;;;;11.51;46.14;97729.71;110093;1241;68328;-76
2023/05/12 05:57:01;;;;;;;;;;;;;;;11.55;45.97;97735.64;110172;1241;59681;-74
2023/05/12 05:59:31;;;;;;;;;;;;;;;11.57;44.98;97737.25;110158;1244;59688;-74
2023/05/12 06:01:59;;;;;;;;;;;;;;;11.60;44.88;97739.00;110146;1243;71815;-74
2023/05/12 06:04:28;;;;;;;;;;;;;;;11.64;44.83;97741.48;110172;1243;68503;-74
2023/05/12 06:06:57;;;;;;;;;;;;;;;11.67;44.73;97742.29;110193;1242;69788;-74
2023/05/12 06:09:27;;;;;;;;;;;;;;;11.68;44.22;97747.15;110194;1240;60057;-74
2023/05/12 06:11:56;;;;;;;;;;;;;;;11.77;44.18;97744.43;110181;1241;59737;-74
2023/05/12 06:14:25;;;;;;;;;;;;;;;11.84;43.48;97748.96;110163;1242;71280;-75
2023/05/12 06:16:55;;;;;;;;;;;;;;;11.91;43.40;97754.25;110150;1242;69048;-76
2023/05/12 06:19:25;;;;;;;;;;;;;;;11.97;43.48;97750.10;110140;1241;69359;-74
2023/05/12 06:21:54;;;;;;;;;;;;;;;12.09;43.31;97751.70;110181;1242;59717;-76
2023/05/12 06:24:23;;;;;;;;;;;;;;;12.17;42.74;97753.20;110115;1244;59665;-76
2023/05/12 06:26:51;;;;;;;;;;;;;;;12.25;42.31;97755.77;110231;1240;72045;-76
2023/05/12 06:29:20;;;;;;;;;;;;;;;12.33;42.95;97755.86;110214;1242;69231;-74
2023/05/12 06:31:50;;;;;;;;;;;;;;;12.40;42.62;97754.15;110120;1241;69278;-75
2023/05/12 06:34:18;;;;;;;;;;;;;;;12.45;41.67;97753.38;110200;1242;59713;-74
2023/05/12 06:36:47;;;;;;;;;;;;;;;12.41;40.59;97755.64;110195;1240;59745;-75
2023/05/12 06:39:16;;;;;;;;;;;;;;;12.36;41.24;97752.31;110170;1242;71985;-76
2023/05/12 06:41:45;;;;;;;;;;;;;;;12.40;40.92;97759.91;110090;1245;69600;-74
2023/05/12 06:44:20;;;;;;;;;;;;;;;12.37;40.64;97758.86;110161;1242;69459;-74
2023/05/12 06:46:52;;;;;;;;;;;;;;;12.35;40.59;97764.33;110178;1242;59766;-74
2023/05/12 06:49:21;;;;;;;;;;;;;;;12.34;41.18;97766.98;110218;1242;60116;-75
2023/05/12 06:51:50;;;;;;;;;;;;;;;12.34;41.28;97768.20;110171;1242;69979;-74
2023/05/12 06:54:19;;;;;;;;;;;;;;;12.36;40.98;97768.58;110196;1242;69099;-74
2023/05/12 06:56:48;;;;;;;;;;;;;;;12.36;40.86;97772.45;110208;1242;68105;-74
2023/05/12 06:59:16;;;;;;;;;;;;;;;12.41;41.18;97770.86;110163;1242;59699;-75
2023/05/12 07:01:49;;;;;;;;;;;;;;;12.47;40.94;97771.91;110218;1242;59739;-74
2023/05/12 07:04:18;;;;;;;;;;;;;;;12.51;39.41;97771.50;110230;1242;71840;-74
2023/05/12 07:06:47;;;;;;;;;;;;;;;12.54;38.55;97774.04;110173;1242;69807;-74
2023/05/12 07:09:17;;;;;;;;;;;;;;;12.56;38.75;97773.36;110146;1242;68497;-74
2023/05/12 07:11:46;;;;;;;;;;;;;;;12.60;38.88;97773.39;110168;1246;59740;-74
2023/05/12 07:14:15;;;;;;;;;;;;;;;12.64;39.28;97776.45;110214;1241;59694;-74
2023/05/12 07:16:43;;;;;;;;;;;;;;;12.67;38.78;97778.47;110172;1242;72051;-74
2023/05/12 07:19:12;;;;;;;;;;;;;;;12.68;37.41;97775.26;110222;1242;69382;-75
2023/05/12 07:21:42;;;;;;;;;;;;;;;12.68;37.21;97773.65;110265;1241;68288;-74
2023/05/12 07:24:10;;;;;;;;;;;;;;;12.74;38.04;97778.62;110247;1242;59743;-74
2023/05/12 07:26:39;;;;;;;;;;;;;;;12.82;37.35;97785.38;110213;1240;59741;-74
2023/05/12 07:29:09;;;;;;;;;;;;;;;12.90;36.52;97776.41;110216;1242;71958;-75
2023/05/12 07:31:41;;;;;;;;;;;;;;;12.94;36.78;97780.64;110220;1242;69412;-75
2023/05/12 07:34:10;;;;;;;;;;;;;;;13.05;36.29;97776.47;110226;1242;69117;-74
2023/05/12 07:36:39;;;;;;;;;;;;;;;13.15;35.98;97778.86;110203;1242;60074;-74
2023/05/12 07:39:07;;;;;;;;;;;;;;;13.25;36.04;97782.15;110329;1242;59753;-73
2023/05/12 07:41:38;;;;;;;;;;;;;;;13.33;35.95;97781.52;110285;1241;72329;-73
2023/05/12 07:44:07;;;;;;;;;;;;;;;13.41;36.13;97776.52;110230;1242;69778;-72
2023/05/12 07:46:36;;;;;;;;;;;;;;;13.60;36.24;97781.98;110175;1242;68144;-71
2023/05/12 07:49:06;;;;;;;;;;;;;;;13.78;35.11;97779.86;110201;1240;59751;-72
2023/05/12 07:51:35;;;;;;;;;;;;;;;13.77;34.33;97778.50;110210;1242;59625;-72
2023/05/12 07:54:03;;;;;;;;;;;;;;;13.81;34.28;97782.60;110161;1242;70405;-73
2023/05/12 07:56:32;;;;;;;;;;;;;;;13.88;34.48;97781.54;110200;1242;69065;-73
2023/05/12 07:59:01;;;;;;;;;;;;;;;13.96;34.41;97784.19;110276;1240;69252;-72
2023/05/12 08:01:30;;;;;;;;;;;;;;;13.96;34.48;97777.71;110257;1242;59723;-72
2023/05/12 08:03:59;;;;;;;;;;;;;;;13.90;34.12;97788.50;110222;1240;59708;-72
2023/05/12 08:06:28;;;;;;;;;;;;;;;13.87;34.84;97785.60;110198;1242;71529;-72
2023/05/12 08:08:57;;;;;;;;;;;;;;;13.86;34.52;97780.98;110186;1242;69131;-72
2023/05/12 08:11:26;;;;;;;;;;;;;;;13.85;34.77;97779.98;110283;1242;67917;-73
2023/05/12 08:13:55;;;;;;;;;;;;;;;13.75;34.50;97783.78;110236;1242;59746;-70
2023/05/12 08:16:24;;;;;;;;;;;;;;;13.69;34.87;97790.75;110177;1241;59673;-73
2023/05/12 08:18:53;;;;;;;;;;;;;;;13.73;34.44;97788.67;110173;1242;71392;-72
2023/05/12 08:21:22;;;;;;;;;;;;;;;13.74;34.62;97786.29;110237;1242;69264;-72
2023/05/12 08:23:51;;;;;;;;;;;;;;;13.76;34.79;97788.10;110210;1241;69052;-72
2023/05/12 08:26:21;;;;;;;;;;;;;;;13.71;34.68;97790.92;110198;1242;59747;-71
2023/05/12 08:28:50;;;;;;;;;;;;;;;13.77;34.66;97789.95;110201;1242;59714;-72
2023/05/12 08:31:19;;;;;;;;;;;;;;;13.79;34.35;97789.23;110219;1241;71354;-72
2023/05/12 08:33:49;;;;;;;;;;;;;;;13.89;34.13;97787.07;110246;1242;70039;-72
2023/05/12 08:36:37;;;;;;;;;;;;;;;13.97;33.56;97788.16;110181;1243;69160;-72
2023/05/12 08:39:09;;;;;;;;;;;;;;;14.00;33.39;97796.63;110236;1242;59705;-72
2023/05/12 08:41:55;;;;;;;;;;;;;;;13.98;32.76;97793.46;110259;1241;59750;-71
2023/05/12 08:44:25;;;;;;;;;;;;;;;14.06;33.60;97796.17;110224;1243;71902;-72
2023/05/12 08:46:56;;;;;;;;;;;;;;;14.04;33.25;97797.91;110179;1240;69736;-74
2023/05/12 08:49:25;;;;;;;;;;;;;;;14.03;33.07;97795.56;110143;1241;68796;-72
2023/05/12 08:51:55;;;;;;;;;;;;;;;13.88;33.06;97800.12;110196;1240;59738;-72
2023/05/12 08:54:26;;;;;;;;;;;;;;;13.80;33.54;97798.41;110164;1241;59759;-72
2023/05/12 08:56:55;;;;;;;;;;;;;;;13.76;33.26;97802.28;110138;1242;71359;-71
2023/05/12 08:59:27;;;;;;;;;;;;;;;13.66;33.26;97806.74;110157;1242;69795;-72
2023/05/12 09:01:57;;;;;;;;;;;;;;;13.74;34.00;97804.34;110160;1241;69211;-72
2023/05/12 09:04:26;;;;;;;;;;;;;;;13.85;33.78;97806.59;110182;1242;59707;-72
2023/05/12 09:06:57;;;;;;;;;;;;;;;14.01;33.79;97799.70;110193;1242;59637;-72
2023/05/12 09:09:27;;;;;;;;;;;;;;;14.12;33.48;97802.33;110213;1242;71573;-72
2023/05/12 09:11:56;;;;;;;;;;;;;;;14.17;33.25;97807.16;110144;1242;69219;-72
2023/05/12 09:14:24;;;;;;;;;;;;;;;14.23;33.23;97807.91;110163;1242;69981;-72
2023/05/12 09:17:00;;;;;;;;;;;;;;;14.32;32.84;97801.10;110168;1240;59748;-72
2023/05/12 09:19:29;;;;;;;;;;;;;;;14.34;33.02;97800.77;110164;1242;59714;-72
2023/05/12 09:21:58;;;;;;;;;;;;;;;14.36;32.81;97800.44;110180;1240;71361;-71
2023/05/12 09:24:35;;;;;;;;;;;;;;;14.43;33.20;97807.14;110167;1240;69657;-72
2023/05/12 09:27:04;;;;;;;;;;;;;;;14.51;33.44;97804.48;110176;1242;69256;-71
2023/05/12 09:29:34;;;;;;;;;;;;;;;14.47;33.09;97803.89;110238;1241;59762;-72
2023/05/12 09:32:39;;;;;;;;;;;;;;;14.51;33.80;97799.16;110214;1243;59631;-72
2023/05/12 09:35:12;;;;;;;;;;;;;;;14.53;34.07;97806.89;110171;1242;71957;-71
2023/05/12 09:37:40;;;;;;;;;;;;;;;14.52;34.57;97806.30;110167;1241;68714;-73
2023/05/12 09:40:10;;;;;;;;;;;;;;;14.57;34.71;97808.00;110155;1242;69067;-72
2023/05/12 09:42:41;;;;;;;;;;;;;;;14.60;34.21;97808.80;110134;1242;59630;-74
2023/05/12 09:45:13;;;;;;;;;;;;;;;14.58;34.35;97807.70;110188;1242;59696;-73
2023/05/12 09:47:43;;;;;;;;;;;;;;;14.47;33.48;97804.61;110170;1242;70679;-71
2023/05/12 09:50:11;;;;;;;;;;;;;;;14.25;33.56;97807.76;110209;1240;69123;-71
2023/05/12 09:52:41;;;;;;;;;;;;;;;14.15;33.75;97806.83;110202;1241;69893;-71
2023/05/12 09:55:10;;;;;;;;;;;;;;;14.04;33.59;97808.04;110176;1242;59767;-72
2023/05/12 09:57:40;;;;;;;;;;;;;;;13.97;34.06;97808.65;110172;1242;60137;-72
2023/05/12 10:00:13;;;;;;;;;;;;;;;13.92;34.00;97802.07;110177;1242;71156;-72
2023/05/12 10:03:06;;;;;;;;;;;;;;;13.92;34.89;97809.02;110148;1242;69207;-73
2023/05/12 10:05:36;;;;;;;;;;;;;;;13.98;34.52;97806.45;110199;1242;69584;-73
2023/05/12 10:08:06;;;;;;;;;;;;;;;14.01;34.57;97807.07;110186;1242;59652;-72
2023/05/12 10:10:35;;;;;;;;;;;;;;;14.02;34.48;97809.30;110264;1241;59711;-72
2023/05/12 10:13:05;;;;;;;;;;;;;;;13.99;34.29;97809.88;110291;1241;71733;-73
2023/05/12 10:15:34;;;;;;;;;;;;;;;13.99;34.40;97805.52;110172;1242;68485;-73
2023/05/12 10:18:03;;;;;;;;;;;;;;;13.99;35.02;97807.95;110193;1242;69858;-72
2023/05/12 10:20:32;;;;;;;;;;;;;;;14.11;35.50;97808.23;110143;1242;59702;-74
2023/05/12 10:23:01;;;;;;;;;;;;;;;14.20;34.90;97807.09;110163;1242;59643;-74
2023/05/12 10:25:30;;;;;;;;;;;;;;;14.16;34.62;97810.67;110193;1242;72025;-72
2023/05/12 10:28:00;;;;;;;;;;;;;;;14.15;35.00;97814.01;110163;1242;69783;-73
2023/05/12 10:30:29;;;;;;;;;;;;;;;14.17;34.52;97810.34;110197;1242;69389;-73
2023/05/12 10:32:58;;;;;;;;;;;;;;;14.09;34.55;97814.14;110140;1244;60081;-72
2023/05/12 10:35:31;;;;;;;;;;;;;;;14.09;35.02;97813.45;110217;1242;59710;-72
2023/05/12 10:38:10;;;;;;;;;;;;;;;14.11;34.95;97815.55;110186;1242;71371;-73
2023/05/12 10:40:58;;;;;;;;;;;;;;;14.07;34.81;97814.17;110207;1242;69787;-73
2023/05/12 10:43:28;;;;;;;;;;;;;;;14.02;35.27;97813.52;110200;1242;69709;-73
2023/05/12 10:46:17;;;;;;;;;;;;;;;13.97;35.33;97809.35;110193;1242;59673;-74
2023/05/12 10:48:48;;;;;;;;;;;;;;;14.05;36.39;97821.52;110234;1241;59743;-74
2023/05/12 10:51:19;;;;;;;;;;;;;;;14.14;36.64;97829.57;110218;1242;72021;-74
2023/05/12 10:53:52;;;;;;;;;;;;;;;14.08;36.27;97828.46;110186;1242;69811;-74
2023/05/12 10:56:23;;;;;;;;;;;;;;;13.93;36.82;97828.77;110195;1242;69891;-74
2023/05/12 10:59:27;;;;;;;;;;;;;;;13.85;37.22;97829.41;110155;1242;59740;-73
2023/05/12 11:02:11;;;;;;;;;;;;;;;13.64;37.71;97831.37;109934;1248;59692;-74
2023/05/12 11:04:45;;;;;;;;;;;;;;;13.52;38.47;97837.83;110207;1242;70454;-74
2023/05/12 11:07:18;;;;;;;;;;;;;;;13.33;39.40;97839.61;110189;1241;69661;-74
2023/05/12 11:09:48;;;;;;;;;;;;;;;13.27;40.22;97839.75;110169;1242;68698;-74
2023/05/12 11:12:31;;;;;;;;;;;;;;;13.23;40.73;97840.86;110176;1245;59669;-74
2023/05/12 11:15:02;;;;;;;;;;;;;;;13.18;40.75;97843.13;110172;1242;59683;-73
2023/05/12 11:17:33;;;;;;;;;;;;;;;13.18;40.44;97846.50;110174;1240;71976;-74
2023/05/12 11:20:02;;;;;;;;;;;;;;;13.10;41.06;97846.44;110167;1242;68728;-74
2023/05/12 11:22:32;;;;;;;;;;;;;;;13.06;40.92;97847.77;110186;1246;69256;-73
2023/05/12 11:25:09;;;;;;;;;;;;;;;13.03;40.91;97843.45;110190;1242;59982;-74
2023/05/12 11:27:44;;;;;;;;;;;;;;;12.94;41.37;97849.41;110202;1242;59685;-73
2023/05/12 11:30:13;;;;;;;;;;;;;;;12.90;41.37;97861.02;110191;1245;71997;-73
2023/05/12 11:32:42;;;;;;;;;;;;;;;12.84;41.53;97861.15;110164;1242;69899;-74
2023/05/12 11:35:13;;;;;;;;;;;;;;;12.79;41.83;97858.39;110173;1243;69873;-73
2023/05/12 11:37:42;;;;;;;;;;;;;;;12.77;41.60;97862.00;110186;1241;59670;-73
2023/05/12 11:40:18;;;;;;;;;;;;;;;12.75;41.68;97858.14;110167;1242;59766;-73
2023/05/12 11:42:48;;;;;;;;;;;;;;;12.67;41.49;97854.70;110220;1240;71451;-74
2023/05/12 11:45:18;;;;;;;;;;;;;;;12.61;41.76;97854.46;110215;1243;68671;-73
2023/05/12 11:47:47;;;;;;;;;;;;;;;12.57;41.71;97859.64;110196;1242;68111;-74
2023/05/12 11:50:23;;;;;;;;;;;;;;;12.45;41.82;97859.27;110185;1241;59738;-73
2023/05/12 11:52:52;;;;;;;;;;;;;;;12.44;42.48;97865.65;110205;1242;59731;-74
2023/05/12 11:55:22;;;;;;;;;;;;;;;12.42;42.22;97865.82;110155;1241;70643;-73
2023/05/12 11:57:57;;;;;;;;;;;;;;;12.34;41.46;97858.02;110142;1242;69666;-73
2023/05/12 12:00:33;;;;;;;;;;;;;;;12.32;43.42;97868.52;110176;1242;69272;-73
2023/05/12 12:03:12;;;;;;;;;;;;;;;12.27;43.99;97872.73;110210;1242;59676;-73
2023/05/12 12:05:44;;;;;;;;;;;;;;;12.23;43.42;97871.73;110221;1241;59736;-74
2023/05/12 12:08:13;;;;;;;;;;;;;;;12.28;43.62;97868.81;110207;1242;71329;-73
2023/05/12 12:10:43;;;;;;;;;;;;;;;12.27;43.59;97869.60;110244;1242;69027;-74
2023/05/12 12:13:18;;;;;;;;;;;;;;;12.28;42.48;97871.55;110175;1242;70226;-73
2023/05/12 12:15:47;;;;;;;;;;;;;;;12.27;42.27;97879.18;110191;1242;59817;-75
2023/05/12 12:18:17;;;;;;;;;;;;;;;12.20;41.70;97890.10;110179;1242;59749;-72
2023/05/12 12:20:46;;;;;;;;;;;;;;;12.22;42.64;97890.85;110193;1242;71294;-74
2023/05/12 12:23:15;;;;;;;;;;;;;;;12.13;43.45;97887.67;110132;1242;69186;-73
2023/05/12 12:25:43;;;;;;;;;;;;;;;12.04;44.32;97891.08;110194;1242;69842;-73
2023/05/12 12:28:12;;;;;;;;;;;;;;;11.89;44.40;97892.02;110177;1247;59750;-76
2023/05/12 12:30:41;;;;;;;;;;;;;;;11.84;44.64;97891.64;110138;1242;59694;-73
2023/05/12 12:33:10;;;;;;;;;;;;;;;11.85;44.98;97895.61;110189;1242;71378;-73
2023/05/12 12:35:38;;;;;;;;;;;;;;;11.95;45.23;97897.20;110226;1242;69080;-73
2023/05/12 12:38:07;;;;;;;;;;;;;;;11.98;45.24;97905.14;110178;1242;69253;-73
2023/05/12 12:40:36;;;;;;;;;;;;;;;11.95;44.98;97910.63;110166;1242;59738;-73
2023/05/12 12:43:05;;;;;;;;;;;;;;;11.87;45.92;97911.73;110147;1242;59628;-73
2023/05/12 12:45:34;;;;;;;;;;;;;;;11.79;46.15;97909.41;110204;1242;70691;-73
2023/05/12 12:48:02;;;;;;;;;;;;;;;11.71;46.98;97918.39;110152;1241;68327;-73
2023/05/12 12:50:31;;;;;;;;;;;;;;;11.68;47.25;97918.75;110156;1240;69258;-73
2023/05/12 12:53:00;;;;;;;;;;;;;;;11.68;47.38;97917.52;110190;1243;59824;-73
2023/05/12 12:55:30;;;;;;;;;;;;;;;11.68;47.46;97914.56;110207;1242;59652;-73
2023/05/12 12:57:59;;;;;;;;;;;;;;;11.63;47.91;97918.19;110220;1241;70209;-74
2023/05/12 13:00:28;;;;;;;;;;;;;;;11.50;48.65;97927.32;110176;1242;70272;-74